createdAt,value
2022-09-02T00:01:34.164Z,8.65
2022-09-02T00:06:34.777Z,8.90
2022-09-02T00:11:35.562Z,10.05
2022-09-02T00:16:34.114Z,9.23
2022-09-02T00:21:34.927Z,9.52
2022-09-02T00:26:33.237Z,9.98
2022-09-02T00:31:33.821Z,10.10
2022-09-02T00:36:34.225Z,10.57
2022-09-02T00:41:32.602Z,10.88
2022-09-02T00:46:33.164Z,11.30
2022-09-02T00:51:42.562Z,12.48
2022-09-02T00:56:44.821Z,11.75
2022-09-02T01:01:43.141Z,11.90
2022-09-02T01:06:45.513Z,11.27
2022-09-02T01:11:49.639Z,10.30
2022-09-02T01:16:50.730Z,9.82
2022-09-02T01:21:51.195Z,8.98
2022-09-02T01:26:50.018Z,9.48
2022-09-02T01:31:48.585Z,9.43
2022-09-02T01:36:46.970Z,10.32
2022-09-02T01:41:46.588Z,9.57
2022-09-02T01:46:45.397Z,10.43
2022-09-02T01:51:44.118Z,8.98
2022-09-02T01:56:42.403Z,9.65
2022-09-02T02:01:41.963Z,8.32
2022-09-02T02:06:43.753Z,7.90
2022-09-02T02:11:42.228Z,8.60
2022-09-02T02:16:42.329Z,8.35
2022-09-02T02:21:40.643Z,7.13
2022-09-02T02:26:38.933Z,8.32
2022-09-02T02:31:39.498Z,7.28
2022-09-02T02:36:41.118Z,7.43
2022-09-02T02:41:40.320Z,7.72
2022-09-02T02:46:43.714Z,7.55
2022-09-02T02:51:44.502Z,7.40
2022-09-02T02:56:42.978Z,7.70
2022-09-02T03:01:41.399Z,7.70
2022-09-02T03:06:39.993Z,7.35
2022-09-02T03:11:39.599Z,6.32
2022-09-02T03:16:38.697Z,7.25
2022-09-02T03:21:39.216Z,7.53
2022-09-02T03:26:42.725Z,8.02
2022-09-02T03:31:42.642Z,7.10
2022-09-02T03:36:44.233Z,7.25
2022-09-02T03:41:46.906Z,6.07
2022-09-02T03:46:46.155Z,6.07
2022-09-02T03:51:44.954Z,5.65
2022-09-02T03:56:43.766Z,5.40
2022-09-02T04:01:44.967Z,5.43
2022-09-02T04:06:43.201Z,5.28
2022-09-02T04:11:43.205Z,4.78
2022-09-02T04:16:44.517Z,4.53
2022-09-02T04:21:43.186Z,5.72
2022-09-02T04:26:44.835Z,4.68
2022-09-02T04:31:47.444Z,4.40
2022-09-02T04:36:45.703Z,5.20
2022-09-02T04:41:45.421Z,4.47
2022-09-02T04:46:45.355Z,4.55
2022-09-02T04:51:50.420Z,4.65
2022-09-02T04:56:49.049Z,4.95
2022-09-02T05:01:50.360Z,5.28
2022-09-02T05:06:54.752Z,5.38
2022-09-02T05:11:57.443Z,4.95
2022-09-02T05:16:58.286Z,5.05
2022-09-02T05:21:59.316Z,4.90
2022-09-02T05:27:07.783Z,4.43
2022-09-02T05:32:08.263Z,4.53
2022-09-02T05:37:10.391Z,4.68
2022-09-02T05:42:08.951Z,5.00
2022-09-02T05:47:07.548Z,4.95
2022-09-02T05:52:10.289Z,5.60
2022-09-02T05:57:18.713Z,5.18
2022-09-02T06:02:30.146Z,5.03
2022-09-02T06:07:28.950Z,4.47
2022-09-02T06:12:33.239Z,5.13
2022-09-02T06:17:31.901Z,4.70
2022-09-02T06:22:32.757Z,4.57
2022-09-02T06:27:33.648Z,4.63
2022-09-02T06:32:33.072Z,4.05
2022-09-02T06:37:35.635Z,4.10
2022-09-02T06:42:36.286Z,4.45
2022-09-02T06:47:50.915Z,3.97
2022-09-02T06:52:50.106Z,4.65
2022-09-02T06:57:50.829Z,3.45
2022-09-02T07:03:11.301Z,3.92
2022-09-02T07:08:10.472Z,3.95
2022-09-02T07:13:10.318Z,4.00
2022-09-02T07:18:08.746Z,3.22
2022-09-02T07:23:08.452Z,4.13
2022-09-02T07:28:07.449Z,3.60
2022-09-02T07:33:08.614Z,3.50
2022-09-02T07:38:08.229Z,3.75
2022-09-02T07:43:10.205Z,3.65
2022-09-02T07:48:10.471Z,3.83
2022-09-02T07:53:09.741Z,3.85
2022-09-02T07:58:12.081Z,4.00
2022-09-02T08:03:16.814Z,3.63
2022-09-02T08:08:22.042Z,3.28
2022-09-02T08:13:20.499Z,4.07
2022-09-02T08:18:22.653Z,3.00
2022-09-02T08:23:35.942Z,3.75
2022-09-02T08:28:35.884Z,3.30
2022-09-02T08:33:35.475Z,3.58
2022-09-02T08:38:33.659Z,3.30
2022-09-02T08:43:40.294Z,3.28
2022-09-02T08:48:45.357Z,3.85
2022-09-02T08:53:51.386Z,3.75
2022-09-02T08:58:56.238Z,3.28
2022-09-02T09:04:12.643Z,3.50
2022-09-02T09:09:22.794Z,3.08
2022-09-02T09:14:30.194Z,4.03
2022-09-02T09:19:41.822Z,3.00
2022-09-02T09:24:42.692Z,3.28
2022-09-02T09:29:41.106Z,3.58
2022-09-02T09:35:07.283Z,3.55
2022-09-02T09:40:26.731Z,3.40
2022-09-02T09:45:32.370Z,3.63
2022-09-02T09:50:32.192Z,3.20
2022-09-02T09:55:30.374Z,3.70
2022-09-02T10:00:32.992Z,2.95
2022-09-02T10:05:36.962Z,3.13
2022-09-02T10:10:35.764Z,2.72
2022-09-02T10:15:44.826Z,3.38
2022-09-02T10:31:33.529Z,3.20
2022-09-02T10:36:38.061Z,3.28
2022-09-02T10:46:54.713Z,3.47
2022-09-02T10:52:05.570Z,4.15
2022-09-02T10:57:11.013Z,4.28
2022-09-02T11:02:17.547Z,2.97
2022-09-02T11:07:23.353Z,2.90
2022-09-02T11:12:27.981Z,2.90
2022-09-02T11:17:31.478Z,3.28
2022-09-02T11:22:39.499Z,3.53
2022-09-02T11:27:45.403Z,3.33
2022-09-02T11:32:51.574Z,3.53
2022-09-02T11:37:57.610Z,3.25
2022-09-02T11:43:08.891Z,3.95
2022-09-02T11:48:37.390Z,3.53
2022-09-02T11:53:41.605Z,3.92
2022-09-02T11:58:41.957Z,3.13
2022-09-02T12:04:15.855Z,3.20
2022-09-02T12:09:14.186Z,2.80
2022-09-02T12:14:35.181Z,3.63
2022-09-02T12:19:43.745Z,3.17
2022-09-02T12:24:53.417Z,3.35
2022-09-02T12:29:52.439Z,2.47
2022-09-02T12:35:07.912Z,6.60
2022-09-02T12:40:16.597Z,9.00
2022-09-02T12:45:28.298Z,8.60
2022-09-02T12:50:32.542Z,5.18
2022-09-02T12:55:34.110Z,4.95
2022-09-02T13:00:40.128Z,3.33
2022-09-02T13:05:51.848Z,5.97
2022-09-02T13:11:23.502Z,7.03
2022-09-02T13:16:34.597Z,9.65
2022-09-02T13:21:56.347Z,12.02
2022-09-02T13:27:33.693Z,32.53
2022-09-02T13:32:34.123Z,9.25
2022-09-02T13:37:36.755Z,11.70
2022-09-02T13:42:37.353Z,9.20
2022-09-02T13:47:36.612Z,12.25
2022-09-02T13:53:34.677Z,8.57
2022-09-02T13:58:01.306Z,9.93
2022-09-02T14:03:02.726Z,12.70
2022-09-02T14:08:04.342Z,11.05
2022-09-02T14:13:05.326Z,11.68
2022-09-02T14:18:18.362Z,10.43
2022-09-02T14:23:17.970Z,10.68
2022-09-02T14:28:24.255Z,9.70
2022-09-02T14:33:28.357Z,10.20
2022-09-02T14:38:28.897Z,9.82
2022-09-02T14:43:30.260Z,10.73
2022-09-02T14:48:28.666Z,8.95
2022-09-02T14:53:26.926Z,9.05
2022-09-02T14:58:27.036Z,9.52
2022-09-02T15:03:27.689Z,11.10
2022-09-02T15:08:26.054Z,9.98
2022-09-02T15:13:29.410Z,10.75
2022-09-02T15:18:30.045Z,9.48
2022-09-02T15:23:32.579Z,11.30
2022-09-02T15:28:32.958Z,9.45
2022-09-02T15:33:33.038Z,9.52
2022-09-02T15:38:31.201Z,10.00
2022-09-02T15:43:29.401Z,10.60
2022-09-02T15:48:28.285Z,10.68
2022-09-02T15:53:28.092Z,9.93
2022-09-02T15:58:26.261Z,9.98
2022-09-02T16:03:24.624Z,10.15
2022-09-02T16:08:23.162Z,10.60
2022-09-02T16:13:23.095Z,10.82
2022-09-02T16:18:21.499Z,5.90
2022-09-02T16:23:19.749Z,4.80
2022-09-02T16:28:17.986Z,5.03
2022-09-02T16:33:17.440Z,5.07
2022-09-02T16:38:16.001Z,6.63
2022-09-02T16:43:14.498Z,6.20
2022-09-02T16:48:12.734Z,6.47
2022-09-02T16:53:12.598Z,5.82
2022-09-02T16:58:11.763Z,6.80
2022-09-02T17:03:11.900Z,6.15
2022-09-02T17:08:11.509Z,5.30
2022-09-02T17:13:09.637Z,5.68
2022-09-02T17:18:07.993Z,5.88
2022-09-02T17:23:06.249Z,5.00
2022-09-02T17:28:05.917Z,4.40
2022-09-02T17:33:05.166Z,4.13
2022-09-02T17:38:03.460Z,3.97
2022-09-02T17:43:02.147Z,3.75
2022-09-02T17:48:19.063Z,4.15
2022-09-02T17:53:19.943Z,4.43
2022-09-02T17:58:21.607Z,5.88
2022-09-02T18:03:43.461Z,5.63
2022-09-02T18:08:52.062Z,6.25
2022-09-02T18:13:56.778Z,6.65
2022-09-02T18:19:13.185Z,8.20
2022-09-02T18:24:19.542Z,8.10
2022-09-02T18:29:32.683Z,8.20
2022-09-02T18:34:44.355Z,8.45
2022-09-02T18:40:01.990Z,7.85
2022-09-02T18:45:08.898Z,7.57
2022-09-02T18:50:22.109Z,7.80
2022-09-02T18:55:35.145Z,6.88
2022-09-02T19:00:46.570Z,6.70
2022-09-02T19:05:46.621Z,6.45
2022-09-02T19:10:44.806Z,6.78
2022-09-02T19:15:43.368Z,7.10
2022-09-02T19:20:42.254Z,9.25
2022-09-02T19:25:44.693Z,7.40
2022-09-02T19:30:43.137Z,8.45
2022-09-02T19:35:46.567Z,7.57
2022-09-02T19:40:49.608Z,7.40
2022-09-02T19:45:51.415Z,8.27
2022-09-02T19:50:49.886Z,9.25
2022-09-02T19:55:51.213Z,8.57
2022-09-02T20:00:49.631Z,8.50
2022-09-02T20:05:49.952Z,9.30
2022-09-02T20:10:56.509Z,8.32
2022-09-02T20:15:55.555Z,8.65
2022-09-02T20:20:57.930Z,7.25
2022-09-02T20:26:17.511Z,8.27
2022-09-02T20:31:23.141Z,8.13
2022-09-02T20:36:29.400Z,8.82
2022-09-02T20:41:38.290Z,8.13
2022-09-02T20:46:52.555Z,7.85
2022-09-02T20:51:57.617Z,7.10
2022-09-02T20:57:09.414Z,6.00
2022-09-02T21:02:10.743Z,6.45
2022-09-02T21:07:14.590Z,6.53
2022-09-02T21:12:32.438Z,6.55
2022-09-02T21:17:40.135Z,7.50
2022-09-02T21:22:44.437Z,6.72
2022-09-02T21:27:50.111Z,6.75
2022-09-02T21:32:51.781Z,6.75
2022-09-02T21:37:52.710Z,8.23
2022-09-02T21:43:16.386Z,8.80
2022-09-02T21:48:33.825Z,9.73
2022-09-02T21:53:53.689Z,9.55
2022-09-02T21:59:15.591Z,7.43
2022-09-02T22:04:31.558Z,9.07
2022-09-02T22:09:33.004Z,7.63
2022-09-02T22:14:38.293Z,7.32
2022-09-02T22:19:40.462Z,7.20
2022-09-02T22:24:40.572Z,6.80
2022-09-02T22:29:46.821Z,6.85
2022-09-02T22:34:50.953Z,6.40
2022-09-02T22:39:51.908Z,5.70
2022-09-02T22:45:18.357Z,6.25
2022-09-02T22:55:47.183Z,5.15
2022-09-02T23:00:50.246Z,4.80
2022-09-02T23:06:01.244Z,5.40
2022-09-02T23:11:07.261Z,5.72
2022-09-02T23:21:21.351Z,5.97
2022-09-02T23:26:31.885Z,6.65
2022-09-02T23:31:58.948Z,6.20
2022-09-02T23:37:06.853Z,6.07
2022-09-02T23:42:05.417Z,6.50
2022-09-02T23:47:19.798Z,6.80
2022-09-02T23:52:27.385Z,6.85
2022-09-02T23:57:46.509Z,6.30
